Southport Airport
CYPG : now visible

Airfield :











YOU CAN JOIN US ON...

 
LOGIN :

Register | Disclaimer

   EN    FR    IT 

 









Legend :    VFR   Marginal VFR   IFR   Intensive IFR   Very Intensive IFR
Visi :
Ceiling :
>= 8 km
>= 3000ft
5 to 8 km
1000 to 3000 ft
1500m to 5 km
500 to 1000 ft
800 to 1500m
200 to 500 ft
< 800m
< 200 ft
Symbols :   Thunderstorms  Fog  Heavy snow  Heavy precipitations  Wind > 20 kt






- Airport Elevation : 885 ft
- IATA code : YPG


CYPG - Southport

CURRENT METAR :
  • 011500Z 21005KT 10SM -SN BKN042 BKN065 BKN210 M19/M22 A3005 RMK SC5SC1CI1 SLP207

EXPIRED METARs :
  • 011400Z 19002KT 8SM -SN FEW042 OVC065 M19/M22 A3004 RMK SC2SC6 SLP205
  • 011300Z 00000KT 8SM -SN OVC042 M20/M22 A3004 RMK SC8 SLP203

TAF AMD TAF CYPG
Valid from the 01 at 13:00 until the 02 at 01:00 UTC


011305Z 0113/0201 VRB03KT P6SM -SN OVC040
TEMPO 0113/0123 5SM -SN OVC030
FM012300 26008KT 6SM -SN OVC025
TEMPO 0123/0201 3SM -SN BKN012 RMK NXT FCST BY 011800Z
CZWG FIR / North America



MET'MAP, your aeronautical weather chart ! - Copyright ORBIFLY December 2007 - Disclaimer

ORBIFLY MET'MAP TEAM :

Programming & Development : Alexandra Zaïnal
Original concept : Baudouin d'Aumeries
Technical & hardware support : Manuel Goepfert
Assistance : Marc-Olivier Méhu




SOURCES & CREDITS :

   NOAA       Earth
Advisory